createdAt,value
2023-03-02T00:01:37.802Z,24.73
2023-03-02T00:07:45.293Z,40.72
2023-03-02T00:10:11.912Z,30.98
2023-03-02T00:12:38.495Z,34.42
2023-03-02T00:15:05.509Z,30.48
2023-03-02T00:17:32.026Z,30.30
2023-03-02T00:20:09.869Z,26.13
2023-03-02T00:22:38.044Z,28.17
2023-03-02T00:25:05.360Z,33.13
2023-03-02T00:27:32.056Z,30.38
2023-03-02T00:29:58.637Z,31.37
2023-03-02T00:32:25.679Z,32.72
2023-03-02T00:34:52.464Z,38.83
2023-03-02T00:37:20.648Z,35.90
2023-03-02T00:39:47.163Z,33.85
2023-03-02T00:42:13.666Z,32.77
2023-03-02T00:44:40.305Z,28.73
2023-03-02T00:47:06.852Z,28.98
2023-03-02T00:49:33.466Z,36.28
2023-03-02T00:51:59.963Z,43.58
2023-03-02T00:54:26.639Z,46.07
2023-03-02T00:56:53.172Z,37.42
2023-03-02T00:59:28.746Z,38.47
2023-03-02T01:01:58.342Z,31.92
2023-03-02T01:04:31.290Z,38.90
2023-03-02T01:06:59.628Z,31.03
2023-03-02T01:09:27.015Z,39.72
2023-03-02T01:11:54.273Z,40.55
2023-03-02T01:14:21.751Z,40.03
2023-03-02T01:16:49.846Z,37.83
2023-03-02T01:19:17.286Z,36.33
2023-03-02T01:21:44.251Z,41.83
2023-03-02T01:24:11.516Z,35.38
2023-03-02T01:26:41.282Z,39.63
2023-03-02T01:29:08.003Z,41.25
2023-03-02T01:31:34.549Z,49.37
2023-03-02T01:34:01.165Z,43.85
2023-03-02T01:36:31.199Z,38.60
2023-03-02T01:38:57.859Z,40.45
2023-03-02T01:41:24.606Z,40.90
2023-03-02T01:43:51.171Z,41.67
2023-03-02T01:46:27.045Z,40.72
2023-03-02T01:49:01.247Z,44.10
2023-03-02T01:51:30.604Z,46.75
2023-03-02T01:54:03.338Z,36.20
2023-03-02T01:56:36.123Z,47.50
2023-03-02T01:59:07.655Z,39.15
2023-03-02T02:01:37.921Z,34.10
2023-03-02T02:04:04.713Z,41.55
2023-03-02T02:07:02.347Z,40.85
2023-03-02T02:09:33.571Z,36.40
2023-03-02T02:12:00.254Z,34.75
2023-03-02T02:17:32.980Z,38.60
2023-03-02T02:20:19.583Z,45.03
2023-03-02T02:23:25.770Z,35.23
2023-03-02T02:25:58.335Z,40.25
2023-03-02T02:28:33.713Z,37.88
2023-03-02T02:31:33.622Z,39.80
2023-03-02T02:34:08.974Z,38.80
2023-03-02T02:36:44.598Z,36.17
2023-03-02T02:39:19.263Z,36.47
2023-03-02T02:41:47.523Z,37.90
2023-03-02T02:44:17.270Z,34.22
2023-03-02T02:46:45.013Z,34.67
2023-03-02T02:49:29.949Z,29.33
2023-03-02T02:51:56.811Z,36.80
2023-03-02T02:54:23.559Z,32.28
2023-03-02T02:56:53.046Z,36.58
2023-03-02T02:59:26.829Z,29.75
2023-03-02T03:01:53.344Z,32.60
2023-03-02T03:04:28.348Z,41.33
2023-03-02T03:06:56.298Z,41.63
2023-03-02T03:09:23.522Z,32.85
2023-03-02T03:11:56.699Z,37.45
2023-03-02T03:14:29.208Z,34.07
2023-03-02T03:16:55.777Z,30.85
2023-03-02T03:19:24.461Z,32.97
2023-03-02T03:21:54.609Z,36.75
2023-03-02T03:24:21.839Z,33.47
2023-03-02T03:26:48.532Z,35.30
2023-03-02T03:29:17.104Z,37.42
2023-03-02T03:31:43.922Z,31.90
2023-03-02T03:34:11.079Z,35.45
2023-03-02T03:36:37.858Z,36.13
2023-03-02T03:39:06.008Z,32.30
2023-03-02T03:41:33.147Z,27.83
2023-03-02T03:43:59.876Z,34.97
2023-03-02T03:46:26.332Z,33.63
2023-03-02T03:48:52.897Z,32.63
2023-03-02T03:51:19.655Z,26.93
2023-03-02T03:56:43.302Z,32.75
2023-03-02T03:59:12.364Z,27.92
2023-03-02T04:01:51.782Z,38.35
2023-03-02T04:04:22.842Z,34.43
2023-03-02T04:06:49.999Z,28.40
2023-03-02T04:09:19.370Z,31.98
2023-03-02T04:11:48.806Z,29.17
2023-03-02T04:14:18.417Z,34.15
2023-03-02T04:16:44.908Z,25.03
2023-03-02T04:19:12.371Z,29.92
2023-03-02T04:21:42.186Z,32.95
2023-03-02T04:24:10.025Z,26.83
2023-03-02T04:26:37.551Z,29.40
2023-03-02T04:29:04.338Z,26.40
2023-03-02T04:31:31.355Z,27.83
2023-03-02T04:33:58.760Z,25.38
2023-03-02T04:36:25.927Z,28.90
2023-03-02T04:38:53.036Z,33.22
2023-03-02T04:41:19.569Z,27.53
2023-03-02T04:43:46.010Z,25.88
2023-03-02T04:46:19.972Z,27.67
2023-03-02T04:48:46.560Z,26.02
2023-03-02T04:51:24.183Z,28.52
2023-03-02T04:54:01.166Z,28.57
2023-03-02T04:56:27.968Z,28.88
2023-03-02T04:58:55.741Z,27.58
2023-03-02T05:01:22.883Z,30.98
2023-03-02T05:03:49.514Z,22.60
2023-03-02T05:06:16.114Z,30.40
2023-03-02T05:08:43.755Z,25.05
2023-03-02T05:11:15.875Z,32.75
2023-03-02T05:13:42.311Z,30.67
2023-03-02T05:16:08.794Z,37.45
2023-03-02T05:18:35.266Z,30.90
2023-03-02T05:21:01.839Z,27.00
2023-03-02T05:23:33.505Z,29.88
2023-03-02T05:26:00.195Z,46.38
2023-03-02T05:28:27.634Z,43.40
2023-03-02T05:30:54.693Z,28.20
2023-03-02T05:33:21.861Z,33.15
2023-03-02T05:35:48.960Z,27.33
2023-03-02T05:38:15.638Z,30.60
2023-03-02T05:40:45.321Z,19.70
2023-03-02T05:43:16.760Z,30.70
2023-03-02T05:45:43.278Z,33.13
2023-03-02T05:48:14.750Z,34.33
2023-03-02T05:50:41.373Z,31.45
2023-03-02T05:53:08.196Z,33.15
2023-03-02T05:55:37.101Z,26.30
2023-03-02T05:58:09.084Z,31.33
2023-03-02T06:00:36.051Z,32.60
2023-03-02T06:03:02.550Z,31.02
2023-03-02T06:05:29.032Z,30.27
2023-03-02T06:07:56.119Z,36.17
2023-03-02T06:10:23.335Z,38.70
2023-03-02T06:12:50.205Z,35.58
2023-03-02T06:15:16.860Z,39.55
2023-03-02T06:17:43.447Z,31.67
2023-03-02T06:20:11.066Z,21.53
2023-03-02T06:22:45.288Z,36.97
2023-03-02T06:25:18.159Z,29.42
2023-03-02T06:27:45.494Z,29.27
2023-03-02T06:30:15.480Z,31.48
2023-03-02T06:32:42.767Z,28.30
2023-03-02T06:35:10.574Z,29.67
2023-03-02T06:37:37.208Z,35.85
2023-03-02T06:40:11.079Z,31.60
2023-03-02T06:42:38.588Z,32.72
2023-03-02T06:45:06.738Z,34.53
2023-03-02T06:47:33.871Z,36.35
2023-03-02T06:50:01.043Z,36.17
2023-03-02T06:52:27.619Z,31.23
2023-03-02T06:54:55.038Z,31.67
2023-03-02T06:57:21.648Z,28.83
2023-03-02T06:59:48.099Z,27.30
2023-03-02T07:02:14.565Z,30.92
2023-03-02T07:04:41.059Z,33.75
2023-03-02T07:07:07.549Z,34.58
2023-03-02T07:09:34.502Z,32.53
2023-03-02T07:12:01.141Z,28.27
2023-03-02T07:14:27.671Z,32.97
2023-03-02T07:16:56.726Z,28.58
2023-03-02T07:19:23.328Z,29.15
2023-03-02T07:21:49.883Z,31.37
2023-03-02T07:24:16.365Z,28.27
2023-03-02T07:26:42.813Z,29.15
2023-03-02T07:29:09.268Z,28.13
2023-03-02T07:31:35.846Z,27.17
2023-03-02T07:34:02.256Z,27.10
2023-03-02T07:36:28.729Z,25.73
2023-03-02T07:38:55.205Z,38.45
2023-03-02T07:41:22.792Z,28.42
2023-03-02T07:43:49.329Z,30.40
2023-03-02T07:46:16.167Z,28.37
2023-03-02T07:48:42.762Z,24.73
2023-03-02T07:51:09.200Z,25.92
2023-03-02T07:53:35.663Z,29.20
2023-03-02T07:56:07.709Z,24.55
2023-03-02T07:58:35.328Z,21.17
2023-03-02T08:01:01.995Z,23.23
2023-03-02T08:03:28.608Z,22.92
2023-03-02T08:05:55.124Z,22.73
2023-03-02T08:08:21.672Z,24.40
2023-03-02T08:10:48.171Z,22.27
2023-03-02T08:13:14.636Z,23.95
2023-03-02T08:15:41.124Z,22.75
2023-03-02T08:18:07.699Z,24.75
2023-03-02T08:20:34.161Z,24.48
2023-03-02T08:23:00.616Z,24.23
2023-03-02T08:25:27.104Z,21.75
2023-03-02T08:27:53.650Z,23.23
2023-03-02T08:30:20.211Z,26.50
2023-03-02T08:32:46.898Z,24.95
2023-03-02T08:35:13.448Z,30.67
2023-03-02T08:37:39.895Z,21.60
2023-03-02T08:40:07.133Z,20.30
2023-03-02T08:42:33.563Z,23.20
2023-03-02T08:45:00.016Z,24.08
2023-03-02T08:47:26.637Z,15.97
2023-03-02T08:49:53.152Z,25.60
2023-03-02T08:52:19.709Z,22.23
2023-03-02T08:54:46.193Z,21.30
2023-03-02T08:57:13.068Z,24.65
2023-03-02T08:59:39.911Z,21.87
2023-03-02T09:02:07.014Z,23.98
2023-03-02T09:04:34.394Z,20.35
2023-03-02T09:07:00.850Z,15.25
2023-03-02T09:09:27.325Z,22.00
2023-03-02T09:11:53.808Z,21.47
2023-03-02T09:14:20.407Z,21.90
2023-03-02T09:16:47.323Z,27.05
2023-03-02T09:19:14.559Z,25.30
2023-03-02T09:21:41.105Z,24.58
2023-03-02T09:24:07.821Z,32.17
2023-03-02T09:26:34.968Z,26.17
2023-03-02T09:29:01.865Z,24.92
2023-03-02T09:31:30.205Z,27.00
2023-03-02T09:33:57.105Z,26.95
2023-03-02T09:36:25.341Z,23.83
2023-03-02T09:38:51.961Z,24.10
2023-03-02T09:41:21.455Z,21.25
2023-03-02T09:44:09.770Z,19.85
2023-03-02T09:46:47.880Z,23.27
2023-03-02T09:49:28.501Z,17.27
2023-03-02T09:52:11.747Z,25.08
2023-03-02T09:54:38.873Z,20.60
2023-03-02T09:57:20.842Z,18.98
2023-03-02T09:59:59.870Z,19.50
2023-03-02T10:02:41.486Z,27.17
2023-03-02T10:05:16.428Z,16.50
2023-03-02T10:07:43.219Z,17.13
2023-03-02T10:10:24.553Z,18.92
2023-03-02T10:13:12.230Z,17.95
2023-03-02T10:15:48.982Z,19.90
2023-03-02T10:18:24.950Z,23.42
2023-03-02T10:20:56.764Z,20.85
2023-03-02T10:23:30.392Z,17.17
2023-03-02T10:26:20.832Z,19.88
2023-03-02T10:28:49.930Z,17.83
2023-03-02T10:31:28.007Z,18.73
2023-03-02T10:33:57.826Z,23.63
2023-03-02T10:36:38.647Z,17.25
2023-03-02T10:39:13.047Z,21.25
2023-03-02T10:42:03.027Z,13.20
2023-03-02T10:44:39.390Z,16.85
2023-03-02T10:47:07.643Z,15.80
2023-03-02T10:49:39.346Z,16.30
2023-03-02T10:52:13.358Z,17.40
2023-03-02T10:54:40.764Z,13.83
2023-03-02T10:57:35.159Z,13.70
2023-03-02T11:00:13.487Z,15.45
2023-03-02T11:03:04.794Z,17.45
2023-03-02T11:05:39.857Z,13.32
2023-03-02T11:08:16.586Z,15.27
2023-03-02T11:11:01.227Z,14.30
2023-03-02T11:13:29.644Z,15.93
2023-03-02T11:16:02.201Z,13.95
2023-03-02T11:18:37.381Z,14.65
2023-03-02T11:21:11.574Z,12.50
2023-03-02T11:24:13.885Z,13.25
2023-03-02T11:26:54.909Z,12.55
2023-03-02T11:29:46.664Z,12.68
2023-03-02T11:32:29.029Z,15.20
2023-03-02T11:35:09.647Z,11.40
2023-03-02T11:37:48.119Z,12.40
2023-03-02T11:40:52.661Z,11.13
2023-03-02T11:43:19.379Z,14.40
2023-03-02T11:45:52.202Z,10.65
2023-03-02T11:48:25.861Z,14.03
2023-03-02T11:51:04.210Z,10.57
2023-03-02T11:53:46.830Z,10.75
2023-03-02T11:56:13.756Z,10.65
2023-03-02T11:58:43.488Z,13.45
2023-03-02T12:01:20.860Z,11.67
2023-03-02T12:03:49.514Z,13.02
2023-03-02T12:06:22.188Z,13.65
2023-03-02T12:08:52.535Z,10.65
2023-03-02T12:11:18.956Z,10.93
2023-03-02T12:13:49.331Z,12.30
2023-03-02T12:16:36.538Z,12.13
2023-03-02T12:19:34.282Z,9.50
2023-03-02T12:22:07.269Z,8.10
2023-03-02T12:24:36.229Z,9.10
2023-03-02T12:27:25.735Z,7.63
2023-03-02T12:30:10.780Z,9.23
2023-03-02T12:32:38.004Z,10.32
2023-03-02T12:35:07.409Z,7.68
2023-03-02T12:38:06.658Z,10.20
2023-03-02T12:40:53.539Z,8.93
2023-03-02T12:43:26.693Z,10.30
2023-03-02T12:46:29.003Z,10.68
2023-03-02T12:49:35.344Z,5.95
2023-03-02T12:52:18.055Z,7.80
2023-03-02T12:54:44.567Z,10.30
2023-03-02T12:57:16.724Z,9.02
2023-03-02T12:59:50.859Z,8.90
2023-03-02T13:02:26.365Z,8.80
2023-03-02T13:04:56.395Z,8.15
2023-03-02T13:07:26.600Z,7.57
2023-03-02T13:09:56.990Z,6.07
2023-03-02T13:12:28.808Z,9.63
2023-03-02T13:14:58.323Z,14.05
2023-03-02T13:17:33.177Z,12.98
2023-03-02T13:20:03.405Z,15.17
2023-03-02T13:22:30.252Z,15.77
2023-03-02T13:25:01.997Z,13.07
2023-03-02T13:27:28.631Z,14.23
2023-03-02T13:29:56.586Z,14.00
2023-03-02T13:32:23.069Z,15.27
2023-03-02T13:34:55.736Z,14.10
2023-03-02T13:37:34.567Z,12.55
2023-03-02T13:40:04.231Z,13.13
2023-03-02T13:42:41.127Z,14.98
2023-03-02T13:45:31.780Z,16.50
2023-03-02T13:48:00.229Z,12.35
2023-03-02T13:50:32.082Z,13.38
2023-03-02T13:53:03.999Z,15.07
2023-03-02T13:55:30.541Z,14.65
2023-03-02T13:57:58.173Z,15.30
2023-03-02T14:00:32.379Z,12.02
2023-03-02T14:02:59.082Z,11.90
2023-03-02T14:05:33.079Z,15.18
2023-03-02T14:08:00.399Z,13.80
2023-03-02T14:10:27.149Z,11.53
2023-03-02T14:13:08.517Z,12.65
2023-03-02T14:15:40.416Z,13.18
2023-03-02T14:18:18.394Z,17.70
2023-03-02T14:20:44.827Z,12.55
2023-03-02T14:23:11.337Z,12.80
2023-03-02T14:25:37.908Z,11.07
2023-03-02T14:28:04.631Z,11.15
2023-03-02T14:30:31.205Z,11.75
2023-03-02T14:32:57.688Z,12.15
2023-03-02T14:35:25.402Z,13.57
2023-03-02T14:37:51.897Z,13.05
2023-03-02T14:40:27.792Z,10.50
2023-03-02T14:42:54.506Z,11.32
2023-03-02T14:45:21.752Z,11.45
2023-03-02T14:47:48.924Z,11.93
2023-03-02T14:50:16.945Z,11.00
2023-03-02T14:52:49.449Z,10.70
2023-03-02T14:55:25.852Z,15.77
2023-03-02T14:57:56.084Z,8.48
2023-03-02T15:00:23.199Z,11.37
2023-03-02T15:02:50.334Z,11.02
2023-03-02T15:05:17.245Z,9.13
2023-03-02T15:07:43.735Z,8.13
2023-03-02T15:10:21.834Z,12.20
2023-03-02T15:12:48.362Z,9.10
2023-03-02T15:15:14.864Z,9.50
2023-03-02T15:17:41.736Z,10.25
2023-03-02T15:20:13.226Z,9.90
2023-03-02T15:22:39.799Z,9.20
2023-03-02T15:25:06.485Z,14.33
2023-03-02T15:27:32.982Z,12.50
2023-03-02T15:30:02.345Z,10.50
2023-03-02T15:32:28.912Z,8.68
2023-03-02T15:34:55.480Z,14.40
2023-03-02T15:37:22.113Z,12.73
2023-03-02T15:39:53.350Z,14.77
2023-03-02T15:42:19.939Z,12.60
2023-03-02T15:44:46.379Z,13.10
2023-03-02T15:47:12.838Z,9.23
2023-03-02T15:49:39.386Z,9.83
2023-03-02T15:52:05.861Z,10.27
2023-03-02T15:54:32.302Z,11.93
2023-03-02T15:56:58.803Z,10.60
2023-03-02T15:59:28.292Z,12.77
2023-03-02T16:01:59.327Z,10.13
2023-03-02T16:04:27.002Z,9.20
2023-03-02T16:06:54.839Z,8.80
2023-03-02T16:09:21.878Z,15.52
2023-03-02T16:11:49.118Z,10.13
2023-03-02T16:14:15.704Z,10.43
2023-03-02T16:16:45.518Z,12.00
2023-03-02T16:19:14.347Z,13.70
2023-03-02T16:21:40.858Z,14.48
2023-03-02T16:24:08.544Z,10.93
2023-03-02T16:26:37.850Z,11.63
2023-03-02T16:29:08.182Z,14.45
2023-03-02T16:31:37.808Z,14.52
2023-03-02T16:34:09.576Z,10.88
2023-03-02T16:36:37.571Z,15.73
2023-03-02T16:39:04.672Z,13.80
2023-03-02T16:41:34.565Z,13.65
2023-03-02T16:44:01.143Z,13.05
2023-03-02T16:46:31.320Z,19.20
2023-03-02T16:48:58.822Z,14.18
2023-03-02T16:51:25.809Z,15.63
2023-03-02T16:53:52.585Z,16.00
2023-03-02T16:56:19.196Z,16.45
2023-03-02T16:58:45.676Z,16.70
2023-03-02T17:01:15.337Z,16.58
2023-03-02T17:03:42.381Z,14.37
2023-03-02T17:06:11.033Z,14.65
2023-03-02T17:08:38.049Z,16.23
2023-03-02T17:11:04.763Z,17.42
2023-03-02T17:13:31.440Z,13.93
2023-03-02T17:15:59.048Z,15.27
2023-03-02T17:18:27.547Z,18.10
2023-03-02T17:20:55.935Z,19.02
2023-03-02T17:23:23.271Z,12.20
2023-03-02T17:25:49.811Z,13.07
2023-03-02T17:28:16.832Z,16.57
2023-03-02T17:30:44.412Z,20.23
2023-03-02T17:33:11.193Z,16.42
2023-03-02T17:35:38.088Z,13.80
2023-03-02T17:38:04.918Z,16.17
2023-03-02T17:40:32.085Z,17.03
2023-03-02T17:42:58.568Z,12.95
2023-03-02T17:45:27.651Z,15.13
2023-03-02T17:47:54.829Z,15.40
2023-03-02T17:50:22.801Z,13.43
2023-03-02T17:52:49.418Z,10.43
2023-03-02T17:55:16.351Z,15.45
2023-03-02T17:57:42.773Z,13.88
2023-03-02T18:00:14.024Z,13.68
2023-03-02T18:02:40.567Z,13.65
2023-03-02T18:05:10.027Z,15.03
2023-03-02T18:07:37.209Z,14.80
2023-03-02T18:10:05.157Z,13.05
2023-03-02T18:12:31.631Z,14.38
2023-03-02T18:14:58.035Z,10.73
2023-03-02T18:17:24.507Z,14.97
2023-03-02T18:19:50.972Z,13.77
2023-03-02T18:22:17.482Z,14.70
2023-03-02T18:24:43.924Z,13.07
2023-03-02T18:27:10.337Z,11.00
2023-03-02T18:29:36.754Z,14.63
2023-03-02T18:32:03.685Z,15.38
2023-03-02T18:34:30.262Z,14.73
2023-03-02T18:36:56.663Z,8.55
2023-03-02T18:39:23.119Z,11.25
2023-03-02T18:41:49.634Z,13.13
2023-03-02T18:44:16.280Z,11.25
2023-03-02T18:46:44.785Z,12.57
2023-03-02T18:49:11.317Z,13.75
2023-03-02T18:51:37.799Z,15.18
2023-03-02T18:54:04.240Z,10.37
2023-03-02T18:56:30.633Z,11.90
2023-03-02T18:58:57.090Z,11.68
2023-03-02T19:01:23.519Z,17.00
2023-03-02T19:03:50.148Z,17.48
2023-03-02T19:06:20.533Z,12.63
2023-03-02T19:08:47.986Z,14.50
2023-03-02T19:11:14.448Z,16.45
2023-03-02T19:13:41.031Z,12.43
2023-03-02T19:16:07.784Z,11.00
2023-03-02T19:18:34.507Z,17.90
2023-03-02T19:21:01.406Z,13.23
2023-03-02T19:23:28.035Z,11.57
2023-03-02T19:25:54.461Z,14.63
2023-03-02T19:28:21.834Z,14.98
2023-03-02T19:30:49.371Z,14.33
2023-03-02T19:33:16.621Z,14.63
2023-03-02T19:35:44.616Z,12.15
2023-03-02T19:38:11.062Z,14.80
2023-03-02T19:40:37.720Z,14.50
2023-03-02T19:43:05.195Z,13.87
2023-03-02T19:45:34.791Z,15.15
2023-03-02T19:48:02.344Z,21.83
2023-03-02T19:50:29.215Z,14.50
2023-03-02T19:52:56.557Z,13.65
2023-03-02T19:55:24.307Z,16.60
2023-03-02T19:57:56.566Z,16.80
2023-03-02T20:00:24.194Z,20.92
2023-03-02T20:02:50.771Z,17.60
2023-03-02T20:05:17.480Z,19.15
2023-03-02T20:07:44.457Z,16.67
2023-03-02T20:10:13.249Z,14.13
2023-03-02T20:12:39.648Z,20.15
2023-03-02T20:15:06.682Z,16.48
2023-03-02T20:17:33.953Z,18.98
2023-03-02T20:20:01.253Z,19.43
2023-03-02T20:22:27.877Z,19.60
2023-03-02T20:24:54.395Z,23.75
2023-03-02T20:27:21.223Z,20.95
2023-03-02T20:29:47.702Z,20.77
2023-03-02T20:32:14.254Z,20.23
2023-03-02T20:34:43.330Z,19.95
2023-03-02T20:37:12.382Z,21.35
2023-03-02T20:39:40.748Z,20.58
2023-03-02T20:42:07.746Z,19.48
2023-03-02T20:44:34.643Z,20.37
2023-03-02T20:47:06.120Z,18.02
2023-03-02T20:49:32.622Z,21.20
2023-03-02T20:51:59.761Z,19.02
2023-03-02T20:54:33.116Z,25.48
2023-03-02T20:56:59.683Z,19.17
2023-03-02T20:59:27.201Z,18.70
2023-03-02T21:01:53.786Z,24.75
2023-03-02T21:04:20.906Z,20.30
2023-03-02T21:06:47.924Z,27.50
2023-03-02T21:09:14.900Z,23.03
2023-03-02T21:11:41.351Z,26.95
2023-03-02T21:14:08.073Z,22.05
2023-03-02T21:16:38.504Z,19.70
2023-03-02T21:19:08.742Z,25.05
2023-03-02T21:21:41.786Z,30.27
2023-03-02T21:24:10.138Z,27.25
2023-03-02T21:26:36.879Z,25.13
2023-03-02T21:29:05.245Z,25.70
2023-03-02T21:31:32.273Z,28.50
2023-03-02T21:34:00.211Z,23.43
2023-03-02T21:36:27.174Z,27.15
2023-03-02T21:38:54.593Z,25.30
2023-03-02T21:41:21.988Z,26.35
2023-03-02T21:43:49.300Z,24.48
2023-03-02T21:46:19.692Z,32.33
2023-03-02T21:48:46.807Z,26.98
2023-03-02T21:51:13.766Z,26.40
2023-03-02T21:53:40.549Z,26.77
2023-03-02T21:56:07.913Z,25.90
2023-03-02T21:58:34.587Z,26.43
2023-03-02T22:01:01.454Z,29.05
2023-03-02T22:03:27.935Z,27.55
2023-03-02T22:05:54.437Z,28.27
2023-03-02T22:08:21.706Z,24.70
2023-03-02T22:10:51.692Z,28.53
2023-03-02T22:13:31.433Z,26.10
2023-03-02T22:16:11.469Z,26.70
2023-03-02T22:18:38.613Z,24.67
2023-03-02T22:21:30.685Z,29.90
2023-03-02T22:24:09.460Z,20.83
2023-03-02T22:26:45.785Z,25.77
2023-03-02T22:29:25.339Z,24.17
2023-03-02T22:31:54.187Z,22.33
2023-03-02T22:34:27.497Z,19.80
2023-03-02T22:37:02.923Z,21.20
2023-03-02T22:39:33.506Z,22.42
2023-03-02T22:42:15.108Z,19.90
2023-03-02T22:44:42.782Z,18.63
2023-03-02T22:47:18.634Z,19.48
2023-03-02T22:49:46.276Z,20.33
2023-03-02T22:52:21.808Z,18.38
2023-03-02T22:54:48.815Z,16.73
2023-03-02T22:57:29.919Z,16.90
2023-03-02T23:00:11.626Z,15.88
2023-03-02T23:02:42.390Z,21.23
2023-03-02T23:05:26.850Z,21.65
2023-03-02T23:08:21.038Z,20.70
2023-03-02T23:10:49.113Z,20.98
2023-03-02T23:13:18.566Z,16.02
2023-03-02T23:15:47.047Z,18.70
2023-03-02T23:18:22.228Z,18.02
2023-03-02T23:20:50.063Z,19.83
2023-03-02T23:23:17.396Z,15.05
2023-03-02T23:25:44.449Z,15.40
2023-03-02T23:28:11.084Z,19.13
2023-03-02T23:30:37.903Z,12.90
2023-03-02T23:33:04.686Z,16.10
2023-03-02T23:35:31.528Z,16.35
2023-03-02T23:37:58.623Z,16.15
2023-03-02T23:40:25.012Z,14.13
2023-03-02T23:42:51.442Z,14.77
2023-03-02T23:45:17.962Z,12.27
2023-03-02T23:47:44.996Z,14.60
2023-03-02T23:50:13.226Z,15.48
2023-03-02T23:52:40.967Z,17.83
2023-03-02T23:55:08.837Z,14.02
2023-03-02T23:57:35.282Z,11.45
